Time;durP1;ratioP1;P1;durP2;ratioP2;P2;SDS_P1;SDS_P2;PMS_P1;PMS_P2;Temp;Humidity;BMP_temperature;BMP_pressure;BME280_temperature;BME280_humidity;BME280_pressure;Samples;Min_cycle;Max_cycle;Signal;HPM_P1;HPM_P2
2023/07/12 00:00:50;;;;;;;4.57;2.08;;;22.20;99.90;;;;;;5071140;28;20022;-82
2023/07/12 00:03:16;;;;;;;6.88;2.13;;;22.20;99.90;;;;;;5065561;28;20017;-82
2023/07/12 00:05:43;;;;;;;5.40;2.03;;;22.20;99.90;;;;;;5044572;28;20126;-82
2023/07/12 00:08:20;;;;;;;3.97;2.00;;;22.20;99.90;;;;;;5068673;28;20013;-81
2023/07/12 00:10:46;;;;;;;7.22;2.25;;;22.20;99.90;;;;;;5060549;28;20028;-81
2023/07/12 00:13:12;;;;;;;5.93;1.98;;;22.20;99.90;;;;;;5069473;28;20017;-82
2023/07/12 00:15:38;;;;;;;7.60;2.13;;;22.20;99.90;;;;;;5067173;28;20335;-82
2023/07/12 00:18:12;;;;;;;7.05;2.10;;;22.20;99.90;;;;;;5068030;28;20008;-82
2023/07/12 00:20:37;;;;;;;9.90;2.00;;;22.20;99.90;;;;;;5059149;28;20541;-81
2023/07/12 00:23:03;;;;;;;11.88;2.35;;;22.20;99.90;;;;;;5038971;28;20104;-81
2023/07/12 00:25:32;;;;;;;3.22;2.10;;;22.20;99.90;;;;;;5022427;28;20021;-82
2023/07/12 00:27:58;;;;;;;9.63;1.70;;;22.20;99.90;;;;;;5040926;28;20036;-81
2023/07/12 00:30:34;;;;;;;4.47;1.77;;;22.20;99.90;;;;;;5045161;28;20021;-81
2023/07/12 00:33:03;;;;;;;3.75;2.05;;;22.20;99.90;;;;;;5041888;28;20022;-81
2023/07/12 00:35:30;;;;;;;4.40;2.25;;;22.20;99.90;;;;;;5045580;28;20477;-81
2023/07/12 00:37:58;;;;;;;4.50;2.20;;;22.20;99.90;;;;;;5025187;28;20033;-80
2023/07/12 00:40:41;;;;;;;6.55;2.50;;;22.20;99.90;;;;;;5025331;28;20107;-81
2023/07/12 00:43:39;;;;;;;7.32;1.98;;;22.20;99.90;;;;;;5027894;28;20474;-80
2023/07/12 00:46:14;;;;;;;4.45;1.67;;;22.20;99.90;;;;;;5043717;28;20063;-80
2023/07/12 00:48:40;;;;;;;8.60;2.40;;;22.20;99.90;;;;;;5046355;28;20088;-80
2023/07/12 00:51:32;;;;;;;12.93;2.67;;;22.20;99.90;;;;;;5028308;28;20021;-80
2023/07/12 00:53:58;;;;;;;6.53;2.97;;;22.10;99.90;;;;;;5027554;28;20029;-80
2023/07/12 00:56:24;;;;;;;9.27;2.65;;;22.10;99.90;;;;;;5040749;28;20032;-80
2023/07/12 00:58:56;;;;;;;3.42;1.90;;;22.10;99.90;;;;;;5041877;28;20021;-80
2023/07/12 01:01:26;;;;;;;6.95;2.13;;;22.10;99.90;;;;;;5043333;28;20107;-80
2023/07/12 01:03:54;;;;;;;6.90;2.30;;;22.10;99.90;;;;;;5039527;28;20021;-79
2023/07/12 01:06:21;;;;;;;9.43;2.72;;;22.10;99.90;;;;;;5025572;28;20436;-79
2023/07/12 01:08:47;;;;;;;9.45;3.00;;;22.10;99.90;;;;;;5048004;28;20071;-79
2023/07/12 01:11:15;;;;;;;5.78;2.75;;;22.10;99.90;;;;;;5045630;28;20025;-79
2023/07/12 01:13:43;;;;;;;6.88;2.92;;;22.10;99.90;;;;;;5039628;28;20112;-79
2023/07/12 01:16:12;;;;;;;9.68;2.85;;;22.10;99.90;;;;;;5042475;28;20422;-80
2023/07/12 01:18:38;;;;;;;6.32;2.85;;;22.10;99.90;;;;;;5036585;28;20090;-80
2023/07/12 01:21:20;;;;;;;8.70;2.47;;;22.10;99.90;;;;;;5042430;28;20372;-81
2023/07/12 01:23:46;;;;;;;8.48;2.72;;;22.10;99.90;;;;;;5047227;28;20032;-80
2023/07/12 01:26:17;;;;;;;8.98;2.65;;;22.10;99.90;;;;;;5040513;28;20099;-79
2023/07/12 01:28:43;;;;;;;6.25;2.55;;;22.10;99.90;;;;;;5042355;28;20025;-80
2023/07/12 01:31:09;;;;;;;10.07;2.70;;;22.10;99.90;;;;;;5039475;28;20021;-80
2023/07/12 01:33:35;;;;;;;3.78;2.50;;;22.10;99.90;;;;;;5038000;28;20033;-79
2023/07/12 01:36:02;;;;;;;5.07;2.30;;;22.10;99.90;;;;;;5044339;28;20060;-79
2023/07/12 01:38:27;;;;;;;8.02;2.50;;;22.10;99.90;;;;;;5036315;28;20025;-79
2023/07/12 01:40:53;;;;;;;4.38;2.20;;;22.10;99.90;;;;;;5044942;28;20025;-79
2023/07/12 01:43:19;;;;;;;8.65;2.63;;;22.10;99.90;;;;;;5024229;28;20023;-79
2023/07/12 01:45:44;;;;;;;4.65;2.10;;;22.10;99.90;;;;;;5039874;28;20028;-78
2023/07/12 01:48:10;;;;;;;4.90;2.35;;;22.10;99.90;;;;;;5035710;28;20366;-79
2023/07/12 01:50:36;;;;;;;6.75;2.38;;;22.10;99.90;;;;;;5037565;28;20025;-79
2023/07/12 01:53:01;;;;;;;9.10;2.55;;;22.10;99.90;;;;;;5038873;28;20021;-78
2023/07/12 01:55:27;;;;;;;7.28;2.55;;;22.10;99.90;;;;;;5038395;28;20124;-79
2023/07/12 01:57:52;;;;;;;4.68;2.28;;;22.10;99.90;;;;;;5038033;28;20486;-79
2023/07/12 02:00:18;;;;;;;5.10;2.58;;;22.10;99.90;;;;;;5037712;28;20108;-79
2023/07/12 02:02:43;;;;;;;3.92;2.42;;;22.10;99.90;;;;;;5039448;28;20470;-79
2023/07/12 02:05:10;;;;;;;5.20;2.67;;;22.10;99.90;;;;;;5034524;28;20028;-78
2023/07/12 02:07:35;;;;;;;8.40;2.65;;;22.10;99.90;;;;;;5043241;28;20086;-79
2023/07/12 02:10:18;;;;;;;12.30;2.45;;;22.10;99.90;;;;;;5039076;28;20052;-79
2023/07/12 02:12:44;;;;;;;11.80;3.00;;;22.10;99.90;;;;;;5038447;28;20485;-79
2023/07/12 02:15:12;;;;;;;4.85;2.80;;;22.10;99.90;;;;;;5033910;28;20434;-79
2023/07/12 02:17:38;;;;;;;10.55;2.65;;;22.10;99.90;;;;;;5037135;28;20022;-79
2023/07/12 02:20:05;;;;;;;10.38;3.15;;;22.10;99.90;;;;;;5037720;28;20112;-79
2023/07/12 02:22:34;;;;;;;10.60;2.95;;;22.10;99.90;;;;;;5040309;28;20092;-79
2023/07/12 02:24:59;;;;;;;6.75;3.13;;;22.10;99.90;;;;;;5042933;28;20108;-79
2023/07/12 02:27:25;;;;;;;12.38;3.15;;;22.10;99.90;;;;;;5047092;28;20517;-78
2023/07/12 02:29:52;;;;;;;15.85;3.00;;;22.10;99.90;;;;;;5023619;28;20454;-78
2023/07/12 02:32:17;;;;;;;5.88;3.38;;;22.10;99.90;;;;;;5037611;28;20029;-78
2023/07/12 02:34:43;;;;;;;5.13;2.88;;;22.10;99.90;;;;;;5035088;28;20140;-78
2023/07/12 02:37:09;;;;;;;7.72;3.25;;;22.00;99.90;;;;;;5042515;28;20078;-79
2023/07/12 02:39:34;;;;;;;10.15;3.33;;;22.00;99.90;;;;;;5041877;28;20025;-78
2023/07/12 02:42:00;;;;;;;7.20;3.10;;;22.00;99.90;;;;;;5028625;28;20075;-78
2023/07/12 02:44:25;;;;;;;8.98;3.47;;;22.00;99.90;;;;;;5043319;28;20096;-78
2023/07/12 02:46:51;;;;;;;6.03;3.67;;;22.00;99.90;;;;;;5022497;28;20428;-78
2023/07/12 02:49:18;;;;;;;6.63;3.35;;;22.00;99.90;;;;;;5039050;28;20026;-78
2023/07/12 02:51:43;;;;;;;11.30;3.80;;;22.00;99.90;;;;;;5039638;28;20036;-78
2023/07/12 02:54:09;;;;;;;17.25;5.05;;;22.00;99.90;;;;;;5043741;28;20467;-78
2023/07/12 02:56:35;;;;;;;13.32;4.18;;;22.00;99.90;;;;;;5041159;28;20044;-78
2023/07/12 02:59:00;;;;;;;13.68;4.68;;;22.00;99.90;;;;;;5046741;28;20097;-78
2023/07/12 03:01:26;;;;;;;6.70;4.25;;;22.00;99.90;;;;;;5039023;28;20033;-78
2023/07/12 03:03:54;;;;;;;11.65;4.13;;;22.00;99.90;;;;;;5037988;28;20049;-78
2023/07/12 03:06:20;;;;;;;6.28;3.97;;;22.00;99.90;;;;;;5041670;28;20022;-78
2023/07/12 03:08:46;;;;;;;7.20;4.43;;;22.00;99.90;;;;;;5041996;28;20017;-78
2023/07/12 03:11:15;;;;;;;14.25;4.50;;;22.00;99.90;;;;;;5044077;28;20048;-78
2023/07/12 03:13:41;;;;;;;7.55;3.72;;;22.00;99.90;;;;;;5043398;28;20025;-78
2023/07/12 03:16:08;;;;;;;6.60;3.75;;;22.00;99.90;;;;;;5042686;28;20025;-78
2023/07/12 03:18:34;;;;;;;6.68;3.13;;;22.00;99.90;;;;;;5041006;28;20025;-78
2023/07/12 03:21:02;;;;;;;4.25;3.25;;;22.00;99.90;;;;;;5041768;28;20033;-78
2023/07/12 03:23:32;;;;;;;6.57;3.33;;;22.00;99.90;;;;;;5041705;28;20032;-78
2023/07/12 03:25:58;;;;;;;4.72;3.08;;;22.00;99.90;;;;;;5045104;28;20013;-78
2023/07/12 03:28:24;;;;;;;7.13;3.70;;;22.00;99.90;;;;;;5038015;28;20021;-78
2023/07/12 03:31:00;;;;;;;11.55;3.85;;;22.00;99.90;;;;;;5042474;28;20426;-78
2023/07/12 03:33:27;;;;;;;6.03;3.13;;;22.00;99.90;;;;;;5038767;28;20030;-77
2023/07/12 03:35:53;;;;;;;8.07;3.40;;;22.00;99.90;;;;;;5047462;28;20021;-78
2023/07/12 03:38:19;;;;;;;7.90;3.47;;;22.00;99.90;;;;;;5046066;28;20377;-77
2023/07/12 03:40:45;;;;;;;5.88;3.30;;;22.00;99.90;;;;;;5028838;28;20507;-78
2023/07/12 03:43:11;;;;;;;4.75;3.33;;;22.00;99.90;;;;;;5038007;28;20506;-77
2023/07/12 03:45:36;;;;;;;13.18;4.30;;;22.00;99.90;;;;;;5041140;28;20576;-77
2023/07/12 03:48:02;;;;;;;13.38;3.95;;;22.00;99.90;;;;;;5039581;28;20136;-78
2023/07/12 03:50:28;;;;;;;4.10;2.85;;;22.00;99.90;;;;;;5042850;28;20049;-78
2023/07/12 03:52:54;;;;;;;7.25;3.22;;;22.00;99.90;;;;;;5045045;28;20024;-78
2023/07/12 03:55:19;;;;;;;10.30;3.65;;;22.00;99.90;;;;;;5044202;28;20028;-77
2023/07/12 03:57:45;;;;;;;9.48;3.47;;;22.00;99.90;;;;;;5039916;28;20039;-77
2023/07/12 04:00:12;;;;;;;12.70;3.40;;;22.00;99.90;;;;;;5040172;28;20459;-78
2023/07/12 04:02:40;;;;;;;6.93;3.58;;;22.00;99.90;;;;;;5040831;28;20028;-78
2023/07/12 04:05:06;;;;;;;7.40;3.80;;;22.00;99.90;;;;;;5046432;28;20096;-86
2023/07/12 04:07:31;;;;;;;10.80;3.83;;;22.00;99.90;;;;;;5030855;28;20537;-78
2023/07/12 04:09:57;;;;;;;8.40;3.40;;;22.00;99.80;;;;;;5045011;28;20029;-78
2023/07/12 04:12:23;;;;;;;10.98;3.33;;;22.00;99.90;;;;;;5032071;28;20044;-78
2023/07/12 04:14:48;;;;;;;7.53;3.17;;;22.00;99.90;;;;;;5046790;28;20018;-78
2023/07/12 04:17:14;;;;;;;9.95;3.10;;;22.00;99.90;;;;;;5040663;28;20088;-78
2023/07/12 04:19:39;;;;;;;7.80;3.00;;;22.00;99.90;;;;;;5048125;28;20065;-78
2023/07/12 04:22:05;;;;;;;12.10;3.33;;;22.00;99.80;;;;;;5045339;28;20441;-78
2023/07/12 04:24:31;;;;;;;6.55;3.38;;;21.90;99.80;;;;;;5041926;28;20024;-78
2023/07/12 04:26:59;;;;;;;8.63;3.65;;;22.00;99.80;;;;;;5043843;28;20017;-78
2023/07/12 04:29:25;;;;;;;12.77;3.42;;;21.90;99.80;;;;;;5042309;28;20039;-78
2023/07/12 04:31:50;;;;;;;8.90;3.33;;;21.90;99.80;;;;;;5043651;28;20029;-77
2023/07/12 04:34:16;;;;;;;4.78;2.95;;;21.90;99.90;;;;;;5042958;28;20131;-77
2023/07/12 04:36:42;;;;;;;6.15;3.33;;;22.00;99.90;;;;;;5046955;28;20131;-78
2023/07/12 04:39:08;;;;;;;9.63;3.35;;;21.90;99.90;;;;;;5043782;28;20062;-78
2023/07/12 04:41:34;;;;;;;8.27;3.50;;;21.90;99.80;;;;;;5043140;28;20127;-77
2023/07/12 04:44:01;;;;;;;11.18;3.45;;;21.90;99.80;;;;;;5041342;28;20017;-78
2023/07/12 04:46:27;;;;;;;5.75;3.22;;;21.90;99.80;;;;;;5042698;28;20044;-78
2023/07/12 04:48:53;;;;;;;7.88;3.15;;;21.90;99.90;;;;;;5037914;28;20032;-78
2023/07/12 04:51:19;;;;;;;10.75;3.17;;;21.90;99.90;;;;;;5040180;28;20406;-78
2023/07/12 04:53:47;;;;;;;9.07;3.10;;;21.90;99.90;;;;;;5040170;28;20029;-78
2023/07/12 04:56:14;;;;;;;10.55;2.88;;;21.90;99.80;;;;;;5018054;28;20508;-78
2023/07/12 04:58:40;;;;;;;7.40;2.83;;;21.90;99.80;;;;;;5040360;28;20021;-78
2023/07/12 05:01:05;;;;;;;13.23;2.63;;;21.90;99.80;;;;;;5037630;28;20027;-79
2023/07/12 05:03:32;;;;;;;11.15;3.00;;;21.90;99.80;;;;;;5021137;28;20104;-79
2023/07/12 05:05:58;;;;;;;10.07;2.63;;;21.90;99.80;;;;;;5034809;28;20017;-78
2023/07/12 05:08:24;;;;;;;13.07;2.97;;;21.90;99.90;;;;;;5045427;28;20028;-78
2023/07/12 05:10:49;;;;;;;3.05;2.22;;;21.90;99.80;;;;;;5041761;28;20021;-78
2023/07/12 05:13:15;;;;;;;9.23;2.53;;;21.80;99.90;;;;;;5049804;28;20737;-79
2023/07/12 05:15:45;;;;;;;2.95;2.38;;;21.80;99.90;;;;;;5041518;28;20032;-79
2023/07/12 05:18:11;;;;;;;5.65;3.00;;;21.80;99.90;;;;;;5042849;28;20017;-78
2023/07/12 05:20:37;;;;;;;10.30;2.55;;;21.80;99.90;;;;;;5040719;28;20099;-79
2023/07/12 05:23:03;;;;;;;9.05;3.28;;;21.80;99.90;;;;;;5040103;28;20021;-79
2023/07/12 05:25:29;;;;;;;7.45;2.35;;;21.90;99.90;;;;;;5042899;28;20043;-79
2023/07/12 05:27:54;;;;;;;4.32;2.50;;;21.90;99.90;;;;;;5030667;28;20509;-81
2023/07/12 05:30:20;;;;;;;15.13;3.17;;;21.90;99.90;;;;;;5048433;28;20021;-81
2023/07/12 05:32:46;;;;;;;6.93;2.88;;;21.90;99.90;;;;;;5029753;28;20029;-81
2023/07/12 05:35:11;;;;;;;4.40;2.42;;;21.90;99.90;;;;;;5029944;28;20026;-81
2023/07/12 05:37:37;;;;;;;8.10;3.05;;;21.90;99.90;;;;;;5041321;28;20017;-81
2023/07/12 05:40:06;;;;;;;4.43;2.83;;;21.90;99.90;;;;;;5046199;28;20470;-83
2023/07/12 05:42:32;;;;;;;11.13;2.70;;;21.90;99.90;;;;;;5043581;28;20017;-81
2023/07/12 05:44:58;;;;;;;8.25;3.08;;;21.90;99.90;;;;;;5048521;28;20036;-81
2023/07/12 05:47:24;;;;;;;6.90;2.65;;;21.90;99.90;;;;;;5029515;28;20466;-81
2023/07/12 05:49:49;;;;;;;11.38;3.17;;;21.90;99.90;;;;;;5040756;28;20025;-81
2023/07/12 05:52:15;;;;;;;6.13;3.08;;;21.90;99.90;;;;;;5041131;28;20041;-81
2023/07/12 05:54:41;;;;;;;4.78;3.15;;;21.90;99.90;;;;;;5046170;28;20021;-81
2023/07/12 05:57:07;;;;;;;7.13;2.67;;;21.90;99.80;;;;;;5040685;28;20025;-81
2023/07/12 05:59:32;;;;;;;4.45;2.22;;;22.20;99.90;;;;;;5042986;28;20375;-81
2023/07/12 06:01:58;;;;;;;9.15;2.78;;;21.90;99.90;;;;;;5041850;28;20067;-81
2023/07/12 06:04:23;;;;;;;6.72;2.55;;;21.90;99.90;;;;;;5025257;28;20104;-81
2023/07/12 06:06:50;;;;;;;5.43;2.92;;;21.80;99.80;;;;;;5044333;28;20583;-81
2023/07/12 06:09:16;;;;;;;11.38;2.88;;;21.90;99.90;;;;;;5043337;28;20021;-81
2023/07/12 06:11:41;;;;;;;4.32;2.33;;;21.90;99.90;;;;;;5025239;28;20029;-81
2023/07/12 06:14:07;;;;;;;6.20;2.40;;;21.90;99.90;;;;;;5039545;28;20053;-83
2023/07/12 06:16:33;;;;;;;8.10;2.55;;;21.90;99.90;;;;;;5028193;28;20546;-82
2023/07/12 06:18:59;;;;;;;5.20;2.53;;;21.90;99.90;;;;;;5029227;28;20025;-83
2023/07/12 06:21:24;;;;;;;8.88;3.35;;;21.90;99.90;;;;;;5025058;28;20389;-82
2023/07/12 06:23:50;;;;;;;7.38;3.00;;;21.80;99.90;;;;;;5030072;28;20104;-82
2023/07/12 06:26:15;;;;;;;6.40;3.38;;;21.90;99.90;;;;;;5042418;28;20477;-82
2023/07/12 06:28:41;;;;;;;9.48;2.90;;;21.80;99.90;;;;;;5025513;28;20025;-82
2023/07/12 06:31:10;;;;;;;8.38;2.55;;;21.90;99.90;;;;;;5030194;28;20021;-85
2023/07/12 06:33:38;;;;;;;8.75;3.40;;;21.90;99.90;;;;;;5012181;28;20029;-83
2023/07/12 06:36:04;;;;;;;7.57;2.92;;;21.80;99.90;;;;;;5040063;28;20009;-83
2023/07/12 06:38:30;;;;;;;7.15;2.97;;;21.90;99.90;;;;;;5041489;28;20488;-81
2023/07/12 06:40:55;;;;;;;9.55;3.20;;;21.90;99.90;;;;;;5044386;28;20521;-84
2023/07/12 06:43:22;;;;;;;9.77;2.42;;;21.80;99.90;;;;;;5025074;28;20079;-82
2023/07/12 06:45:48;;;;;;;7.45;3.30;;;21.90;99.90;;;;;;5032557;28;20535;-83
2023/07/12 06:48:13;;;;;;;7.97;3.17;;;21.80;99.90;;;;;;5038861;28;20025;-82
2023/07/12 06:50:39;;;;;;;9.70;2.92;;;21.90;99.90;;;;;;5040483;28;20025;-82
2023/07/12 06:53:05;;;;;;;8.90;3.45;;;21.90;99.90;;;;;;5027170;28;20033;-81
2023/07/12 06:55:31;;;;;;;10.48;3.05;;;21.90;99.90;;;;;;5024247;28;20551;-85
2023/07/12 06:57:57;;;;;;;5.75;2.83;;;21.90;99.90;;;;;;5046702;28;20562;-81
2023/07/12 07:00:23;;;;;;;12.63;3.35;;;21.90;99.90;;;;;;5040402;28;20041;-82
2023/07/12 07:02:48;;;;;;;5.93;2.80;;;21.90;99.90;;;;;;5023058;28;20397;-82
2023/07/12 07:05:14;;;;;;;11.57;2.83;;;21.90;99.90;;;;;;5043173;28;20455;-81
2023/07/12 07:07:39;;;;;;;8.45;2.80;;;21.90;99.90;;;;;;5037378;28;20033;-84
2023/07/12 07:10:06;;;;;;;12.65;3.08;;;21.90;99.90;;;;;;5022970;28;20398;-82
2023/07/12 07:12:31;;;;;;;5.72;2.92;;;21.90;99.90;;;;;;5041358;28;20037;-84
2023/07/12 07:14:57;;;;;;;12.77;3.38;;;21.90;99.90;;;;;;5024091;28;20024;-83
2023/07/12 07:17:22;;;;;;;9.70;3.70;;;21.90;99.90;;;;;;5024507;28;20018;-83
2023/07/12 07:19:48;;;;;;;5.65;2.72;;;21.80;99.90;;;;;;5036002;28;20036;-82
2023/07/12 07:22:13;;;;;;;14.27;3.67;;;21.90;99.90;;;;;;5047198;28;20035;-81
2023/07/12 07:24:39;;;;;;;7.45;3.35;;;21.90;99.90;;;;;;5045737;28;20529;-83
2023/07/12 07:27:05;;;;;;;10.05;3.50;;;21.90;99.90;;;;;;5046006;28;20421;-83
2023/07/12 07:29:30;;;;;;;8.60;3.15;;;21.90;99.90;;;;;;5060974;28;20029;-82
2023/07/12 07:31:56;;;;;;;9.13;3.63;;;21.90;99.90;;;;;;5055614;28;20523;-81
2023/07/12 07:34:22;;;;;;;7.95;3.30;;;21.90;99.90;;;;;;5047781;28;20458;-82
2023/07/12 07:36:47;;;;;;;11.90;2.72;;;21.90;99.90;;;;;;5038791;28;20065;-84
2023/07/12 07:39:13;;;;;;;8.40;3.10;;;21.90;99.90;;;;;;5061377;28;20056;-83
2023/07/12 07:41:38;;;;;;;17.85;3.63;;;21.90;99.90;;;;;;5055625;28;20029;-82
2023/07/12 07:44:04;;;;;;;13.57;3.40;;;21.90;99.90;;;;;;5042634;28;20017;-82
2023/07/12 07:46:29;;;;;;;9.52;3.17;;;21.90;99.90;;;;;;5061517;28;20036;-82
2023/07/12 07:48:55;;;;;;;10.10;3.42;;;21.90;99.90;;;;;;5042260;28;20058;-82
2023/07/12 07:51:21;;;;;;;5.47;3.33;;;21.90;99.90;;;;;;5048861;28;20456;-82
2023/07/12 07:53:47;;;;;;;7.28;3.20;;;22.00;99.90;;;;;;5045646;28;20120;-82
2023/07/12 07:56:12;;;;;;;7.75;3.72;;;22.00;99.90;;;;;;5051382;28;20025;-82
2023/07/12 07:58:38;;;;;;;12.48;3.80;;;22.00;99.90;;;;;;5039701;28;20423;-82
2023/07/12 08:01:04;;;;;;;9.85;4.00;;;22.00;99.90;;;;;;5050130;28;20503;-82
2023/07/12 08:03:33;;;;;;;8.38;3.55;;;22.00;99.90;;;;;;5048432;28;20185;-82
2023/07/12 08:06:06;;;;;;;9.13;3.90;;;22.00;99.90;;;;;;5063470;28;20040;-82
2023/07/12 08:08:33;;;;;;;6.97;3.90;;;22.00;99.90;;;;;;5059974;28;20274;-83
2023/07/12 08:10:59;;;;;;;11.00;4.28;;;22.00;99.90;;;;;;5042582;28;20020;-83
2023/07/12 08:13:25;;;;;;;8.07;4.40;;;22.00;99.90;;;;;;5038985;28;20497;-83
2023/07/12 08:15:54;;;;;;;13.00;4.15;;;22.00;99.90;;;;;;5044599;28;20020;-84
2023/07/12 08:18:19;;;;;;;14.38;4.20;;;22.00;99.90;;;;;;5049357;28;20024;-84
2023/07/12 08:20:51;;;;;;;7.97;4.13;;;22.00;99.90;;;;;;5053086;28;20482;-84
2023/07/12 08:23:17;;;;;;;7.55;4.18;;;22.00;99.90;;;;;;5040053;28;20033;-86
2023/07/12 08:25:43;;;;;;;12.32;5.15;;;22.00;99.90;;;;;;5023154;28;20209;-83
2023/07/12 08:28:08;;;;;;;8.68;3.65;;;22.10;99.90;;;;;;5043673;28;20464;-85
2023/07/12 08:30:35;;;;;;;12.02;4.43;;;22.10;99.80;;;;;;5024184;28;20025;-85
2023/07/12 08:33:01;;;;;;;13.15;4.25;;;22.10;99.90;;;;;;5025884;28;20474;-83
2023/07/12 08:35:26;;;;;;;9.27;4.47;;;22.10;99.80;;;;;;5026346;28;20033;-83
2023/07/12 08:37:52;;;;;;;11.77;3.97;;;22.10;99.80;;;;;;5025407;28;20025;-83
2023/07/12 08:40:17;;;;;;;13.77;4.65;;;22.10;99.70;;;;;;5040959;28;20455;-83
2023/07/12 08:42:45;;;;;;;10.52;4.70;;;22.10;99.80;;;;;;5030735;28;20032;-86
2023/07/12 08:45:25;;;;;;;9.75;4.65;;;22.10;99.90;;;;;;5028627;28;20034;-83
2023/07/12 08:47:54;;;;;;;10.80;4.05;;;22.10;99.90;;;;;;5046880;28;20047;-83
2023/07/12 08:50:21;;;;;;;12.75;4.90;;;22.10;99.90;;;;;;5042733;28;20064;-82
2023/07/12 08:52:46;;;;;;;7.07;4.47;;;22.10;99.80;;;;;;5041058;28;20091;-84
2023/07/12 08:55:19;;;;;;;14.70;4.38;;;22.10;99.70;;;;;;5026936;28;20029;-85
2023/07/12 08:58:03;;;;;;;9.40;4.35;;;22.10;99.70;;;;;;5043696;28;20035;-81
2023/07/12 09:00:32;;;;;;;12.70;4.55;;;22.10;99.50;;;;;;5044895;28;20086;-83
2023/07/12 09:02:58;;;;;;;13.20;4.13;;;22.10;99.50;;;;;;5042455;28;20021;-83
2023/07/12 09:05:24;;;;;;;14.07;4.60;;;22.10;99.40;;;;;;5047109;28;20268;-83
2023/07/12 09:07:55;;;;;;;8.88;3.92;;;22.10;99.40;;;;;;5025329;28;20083;-83
2023/07/12 09:10:33;;;;;;;13.80;4.85;;;22.10;99.40;;;;;;5023147;28;20018;-82
2023/07/12 09:12:59;;;;;;;13.63;4.82;;;22.10;99.30;;;;;;5024122;28;20417;-83
2023/07/12 09:15:32;;;;;;;10.88;4.53;;;22.10;99.40;;;;;;5042514;28;20024;-81
2023/07/12 09:17:59;;;;;;;6.97;4.47;;;22.10;99.30;;;;;;5046388;28;20060;-83
2023/07/12 09:20:28;;;;;;;12.05;4.90;;;22.20;99.30;;;;;;5023044;28;20082;-83
2023/07/12 09:22:55;;;;;;;9.43;4.57;;;22.20;99.30;;;;;;5039928;28;20025;-83
2023/07/12 09:25:24;;;;;;;7.50;4.47;;;22.20;99.30;;;;;;5043274;28;20029;-84
2023/07/12 09:27:50;;;;;;;12.13;4.67;;;22.10;99.20;;;;;;5023908;28;20030;-82
2023/07/12 09:30:29;;;;;;;7.97;4.22;;;22.20;99.20;;;;;;5026330;28;20270;-83
2023/07/12 09:32:56;;;;;;;8.50;4.13;;;22.20;99.20;;;;;;5039504;28;20084;-82
2023/07/12 09:35:37;;;;;;;10.60;4.43;;;22.10;99.10;;;;;;5041396;28;20029;-83
2023/07/12 09:38:05;;;;;;;13.38;4.70;;;22.10;99.10;;;;;;5025502;28;20088;-82
2023/07/12 09:40:42;;;;;;;9.50;3.42;;;22.20;99.20;;;;;;5043060;28;20025;-80
2023/07/12 09:43:18;;;;;;;12.38;4.15;;;22.20;99.10;;;;;;5021527;28;20417;-82
2023/07/12 09:46:19;;;;;;;6.93;3.92;;;22.20;99.10;;;;;;5043689;28;20025;-82
2023/07/12 09:49:11;;;;;;;8.50;4.18;;;22.20;99.10;;;;;;5039777;28;20022;-83
2023/07/12 09:51:55;;;;;;;11.60;5.03;;;22.20;99.10;;;;;;5039122;28;20025;-82
2023/07/12 09:54:42;;;;;;;7.25;4.30;;;22.20;99.00;;;;;;5028873;28;20037;-82
2023/07/12 09:57:21;;;;;;;16.15;5.30;;;22.20;99.00;;;;;;5038967;28;20052;-82
2023/07/12 10:00:03;;;;;;;11.90;5.13;;;22.20;99.00;;;;;;5041700;28;20025;-81
2023/07/12 10:02:47;;;;;;;9.98;4.45;;;22.20;98.90;;;;;;5023177;28;20482;-83
2023/07/12 10:05:18;;;;;;;5.55;4.00;;;22.20;99.00;;;;;;5035020;28;20063;-83
2023/07/12 10:07:59;;;;;;;12.38;4.57;;;22.20;98.90;;;;;;5044040;28;20021;-82
2023/07/12 10:10:31;;;;;;;9.45;4.38;;;22.20;99.00;;;;;;5036859;28;20075;-81
2023/07/12 10:13:33;;;;;;;11.27;4.57;;;22.20;98.90;;;;;;5027327;28;20032;-82
2023/07/12 10:16:01;;;;;;;13.20;5.03;;;22.20;98.90;;;;;;5040122;28;20032;-81
2023/07/12 10:18:32;;;;;;;10.23;4.53;;;22.20;98.90;;;;;;5025985;28;20555;-81
2023/07/12 10:20:59;;;;;;;11.02;4.55;;;22.20;98.90;;;;;;5037463;28;20040;-80
2023/07/12 10:23:36;;;;;;;12.30;4.78;;;22.20;98.90;;;;;;5027426;28;20026;-80
2023/07/12 10:26:05;;;;;;;12.27;4.30;;;22.20;99.00;;;;;;5016389;28;20044;-81
2023/07/12 10:28:46;;;;;;;9.43;4.28;;;22.20;99.00;;;;;;5032009;28;20030;-80
2023/07/12 10:31:21;;;;;;;9.57;4.53;;;22.20;99.00;;;;;;5042628;28;20017;-80
2023/07/12 10:33:49;;;;;;;10.32;5.40;;;22.20;99.00;;;;;;5037898;28;20036;-80
2023/07/12 10:36:25;;;;;;;8.32;4.53;;;22.20;99.00;;;;;;5037536;28;20060;-81
2023/07/12 10:38:52;;;;;;;10.45;4.63;;;22.20;99.10;;;;;;5027704;28;20425;-80
2023/07/12 10:41:31;;;;;;;10.70;4.78;;;22.20;99.00;;;;;;5041629;28;20030;-82
2023/07/12 10:44:08;;;;;;;9.82;5.07;;;22.20;99.10;;;;;;5035990;28;20064;-80
2023/07/12 10:46:37;;;;;;;8.80;4.47;;;22.20;99.00;;;;;;5022611;28;20086;-81
2023/07/12 10:49:11;;;;;;;11.02;4.82;;;22.20;99.00;;;;;;5043052;28;20096;-81
2023/07/12 10:51:40;;;;;;;13.98;5.18;;;22.20;99.00;;;;;;5041735;28;20037;-80
2023/07/12 10:54:28;;;;;;;9.57;4.63;;;22.20;99.10;;;;;;5039037;28;20385;-81
2023/07/12 10:56:55;;;;;;;11.00;4.97;;;22.20;99.10;;;;;;5044192;28;20099;-80
2023/07/12 10:59:32;;;;;;;6.75;4.50;;;22.20;99.00;;;;;;5037869;28;20454;-80
2023/07/12 11:02:04;;;;;;;8.45;3.58;;;22.20;99.10;;;;;;5042923;28;20377;-80
2023/07/12 11:04:29;;;;;;;7.93;3.83;;;22.20;99.10;;;;;;5020145;28;20036;-80
2023/07/12 11:07:01;;;;;;;9.13;3.97;;;22.20;99.00;;;;;;5035884;28;20021;-80
2023/07/12 11:09:47;;;;;;;6.47;4.00;;;22.20;99.10;;;;;;5039260;28;20518;-80
2023/07/12 11:12:30;;;;;;;5.82;4.25;;;22.20;99.10;;;;;;5037112;28;20029;-79
2023/07/12 11:15:21;;;;;;;14.25;4.63;;;22.20;99.10;;;;;;5038418;28;20034;-80
2023/07/12 11:18:24;;;;;;;9.73;4.20;;;22.30;99.10;;;;;;5022818;28;20025;-80
2023/07/12 11:21:03;;;;;;;7.95;4.00;;;22.20;99.00;;;;;;5043683;28;20385;-80
2023/07/12 11:23:48;;;;;;;7.32;3.85;;;22.20;98.90;;;;;;5041209;28;20080;-80
2023/07/12 11:26:32;;;;;;;7.82;4.20;;;22.30;98.90;;;;;;5039280;28;20022;-80
2023/07/12 11:29:28;;;;;;;6.65;4.68;;;22.30;98.90;;;;;;5038886;28;20057;-80
2023/07/12 11:32:22;;;;;;;6.50;4.20;;;22.30;99.00;;;;;;5039841;28;20029;-81
2023/07/12 11:34:51;;;;;;;7.80;4.78;;;22.30;99.10;;;;;;5042647;28;20028;-81
2023/07/12 11:37:35;;;;;;;9.05;5.18;;;22.30;99.00;;;;;;5040480;28;20365;-78
2023/07/12 11:40:00;;;;;;;7.95;4.53;;;22.40;99.80;;;;;;5042588;28;20026;-77
2023/07/12 11:42:28;;;;;;;11.70;5.40;;;22.60;99.50;;;;;;5038320;28;20068;-78
2023/07/12 11:45:06;;;;;;;10.27;5.28;;;22.80;98.80;;;;;;5043475;28;20410;-78
2023/07/12 11:47:32;;;;;;;8.93;5.22;;;23.00;98.10;;;;;;5041729;28;20725;-78
2023/07/12 11:50:00;;;;;;;8.48;5.43;;;23.10;97.20;;;;;;5040972;28;20433;-78
2023/07/12 11:52:27;;;;;;;7.80;4.78;;;23.10;97.10;;;;;;5039651;28;20032;-78
2023/07/12 11:54:53;;;;;;;7.47;4.90;;;23.10;96.80;;;;;;5040949;28;20049;-78
2023/07/12 11:57:20;;;;;;;9.80;5.30;;;23.10;97.00;;;;;;5023206;28;20026;-79
2023/07/12 11:59:50;;;;;;;9.13;4.78;;;23.10;97.10;;;;;;5040976;28;20075;-78
2023/07/12 12:02:18;;;;;;;;;;;23.20;97.10;;;;;;5042152;28;20355;-78
2023/07/12 12:04:48;;;;;;;10.32;4.65;;;23.30;97.10;;;;;;5040545;28;19958;-78
2023/07/12 12:07:25;;;;;;;9.35;5.40;;;23.30;97.20;;;;;;5040855;28;20027;-78
2023/07/12 12:09:52;;;;;;;7.03;4.95;;;23.50;97.30;;;;;;5040849;28;20009;-78
2023/07/12 12:12:24;;;;;;;14.85;5.40;;;23.50;96.50;;;;;;5043155;28;20095;-78
2023/07/12 12:14:51;;;;;;;8.75;4.45;;;23.40;96.30;;;;;;5039722;28;20033;-78
2023/07/12 12:17:23;;;;;;;5.80;4.35;;;23.30;96.30;;;;;;5041812;28;20026;-79
2023/07/12 12:19:49;;;;;;;9.93;4.65;;;23.20;96.50;;;;;;5039136;28;20363;-78
2023/07/12 12:22:23;;;;;;;10.45;5.80;;;23.10;96.70;;;;;;5036466;28;20102;-78
2023/07/12 12:24:54;;;;;;;9.80;4.55;;;23.00;96.20;;;;;;5046767;28;20045;-78
2023/07/12 12:27:22;;;;;;;11.05;4.90;;;23.00;96.20;;;;;;5047694;28;20033;-77
2023/07/12 12:29:51;;;;;;;11.63;4.88;;;23.00;97.20;;;;;;5048300;28;20013;-78
2023/07/12 12:32:20;;;;;;;8.00;4.75;;;22.90;97.40;;;;;;5029532;28;20029;-78
2023/07/12 12:34:53;;;;;;;8.07;4.93;;;22.90;96.90;;;;;;5045839;28;20055;-78
2023/07/12 12:37:28;;;;;;;9.35;4.45;;;22.90;96.80;;;;;;5041400;28;20073;-78
2023/07/12 12:40:16;;;;;;;10.82;4.45;;;22.90;96.90;;;;;;5042040;28;20086;-78
2023/07/12 12:43:03;;;;;;;7.82;4.80;;;22.90;97.10;;;;;;5046961;28;20111;-77
2023/07/12 12:45:36;;;;;;;11.48;4.60;;;22.80;97.00;;;;;;5041828;28;20335;-77
2023/07/12 12:48:04;;;;;;;6.35;4.05;;;22.80;97.80;;;;;;5041905;28;20017;-82
2023/07/12 12:50:31;;;;;;;8.52;4.50;;;22.70;98.30;;;;;;5042341;28;20526;-81
2023/07/12 12:53:04;;;;;;;13.10;4.35;;;22.70;98.30;;;;;;5039386;28;20104;-81